createdAt,value
2023-06-30T00:00:31.588Z,23.03
2023-06-30T00:03:26.744Z,23.01
2023-06-30T00:06:00.072Z,23.04
2023-06-30T00:08:31.718Z,23.10
2023-06-30T00:11:04.370Z,23.16
2023-06-30T00:13:35.344Z,23.02
2023-06-30T00:16:07.008Z,22.87
2023-06-30T00:18:38.881Z,22.78
2023-06-30T00:21:09.442Z,22.71
2023-06-30T00:23:41.325Z,22.64
2023-06-30T00:26:13.083Z,22.59
2023-06-30T00:28:45.390Z,22.62
2023-06-30T00:31:16.414Z,22.72
2023-06-30T00:33:47.906Z,22.77
2023-06-30T00:36:19.716Z,22.78
2023-06-30T00:38:53.714Z,22.78
2023-06-30T00:41:24.904Z,22.79
2023-06-30T00:43:58.606Z,22.82
2023-06-30T00:46:30.552Z,22.70
2023-06-30T00:49:02.271Z,22.67
2023-06-30T00:51:35.418Z,22.78
2023-06-30T00:54:07.489Z,22.68
2023-06-30T00:56:39.036Z,22.53
2023-06-30T00:59:09.584Z,22.52
2023-06-30T01:01:59.257Z,22.46
2023-06-30T01:04:40.334Z,22.31
2023-06-30T01:07:19.621Z,22.26
2023-06-30T01:10:03.745Z,22.31
2023-06-30T01:12:37.127Z,22.36
2023-06-30T01:15:09.677Z,22.44
2023-06-30T01:17:55.343Z,22.44
2023-06-30T01:20:36.120Z,22.39
2023-06-30T01:23:20.230Z,22.42
2023-06-30T01:25:53.949Z,22.40
2023-06-30T01:28:25.036Z,22.41
2023-06-30T01:30:58.521Z,22.38
2023-06-30T01:33:31.043Z,22.38
2023-06-30T01:36:03.619Z,22.47
2023-06-30T01:38:35.796Z,22.49
2023-06-30T01:41:11.290Z,22.40
2023-06-30T01:43:46.099Z,22.42
2023-06-30T01:46:18.666Z,22.42
2023-06-30T01:48:50.905Z,22.46
2023-06-30T01:51:22.978Z,22.41
2023-06-30T01:53:54.400Z,22.29
2023-06-30T01:56:28.341Z,22.21
2023-06-30T01:59:02.386Z,22.15
2023-06-30T02:01:34.596Z,22.14
2023-06-30T02:04:06.481Z,22.15
2023-06-30T02:06:37.967Z,22.19
2023-06-30T02:09:10.111Z,22.20
2023-06-30T02:11:43.890Z,22.20
2023-06-30T02:14:14.765Z,22.25
2023-06-30T02:16:46.089Z,22.35
2023-06-30T02:19:18.720Z,22.40
2023-06-30T02:21:51.539Z,22.39
2023-06-30T02:24:23.721Z,22.37
2023-06-30T02:27:01.397Z,22.41
2023-06-30T02:29:34.907Z,22.50
2023-06-30T02:32:07.796Z,22.58
2023-06-30T02:34:40.937Z,22.62
2023-06-30T02:37:14.468Z,22.68
2023-06-30T02:39:48.166Z,22.78
2023-06-30T02:42:19.530Z,22.80
2023-06-30T02:44:51.357Z,22.65
2023-06-30T02:47:22.452Z,22.51
2023-06-30T02:49:54.764Z,22.44
2023-06-30T02:52:26.643Z,22.46
2023-06-30T02:55:00.521Z,22.47
2023-06-30T02:57:31.868Z,22.45
2023-06-30T03:00:05.359Z,22.48
2023-06-30T03:02:38.270Z,22.52
2023-06-30T03:05:11.329Z,22.46
2023-06-30T03:07:44.020Z,22.40
2023-06-30T03:10:15.473Z,22.33
2023-06-30T03:12:47.041Z,22.33
2023-06-30T03:15:19.401Z,22.36
2023-06-30T03:17:51.745Z,22.32
2023-06-30T03:20:23.855Z,22.24
2023-06-30T03:22:58.345Z,22.14
2023-06-30T03:25:30.969Z,22.01
2023-06-30T03:28:03.411Z,21.93
2023-06-30T03:30:36.073Z,21.90
2023-06-30T03:33:09.867Z,21.85
2023-06-30T03:35:40.912Z,21.78
2023-06-30T03:38:13.931Z,21.74
2023-06-30T03:40:46.184Z,21.77
2023-06-30T03:43:18.772Z,21.74
2023-06-30T03:45:53.076Z,21.70
2023-06-30T03:48:26.564Z,21.66
2023-06-30T03:51:00.277Z,21.65
2023-06-30T03:53:33.237Z,21.75
2023-06-30T03:56:05.400Z,21.85
2023-06-30T03:58:36.784Z,21.95
2023-06-30T04:01:10.058Z,21.97
2023-06-30T04:03:41.735Z,21.99
2023-06-30T04:06:12.877Z,21.95
2023-06-30T04:08:44.338Z,21.90
2023-06-30T04:11:16.522Z,21.87
2023-06-30T04:13:49.921Z,21.88
2023-06-30T04:16:21.524Z,21.98
2023-06-30T04:18:55.382Z,22.06
2023-06-30T04:21:29.258Z,22.05
2023-06-30T04:24:00.592Z,22.02
2023-06-30T04:26:33.670Z,22.03
2023-06-30T04:29:04.460Z,22.10
2023-06-30T04:31:34.053Z,22.20
2023-06-30T04:34:04.261Z,22.21
2023-06-30T04:36:34.190Z,22.20
2023-06-30T04:39:04.388Z,22.22
2023-06-30T04:41:34.549Z,22.30
2023-06-30T04:44:04.078Z,22.39
2023-06-30T04:46:33.967Z,22.49
2023-06-30T04:49:06.404Z,22.57
2023-06-30T04:51:37.324Z,22.66
2023-06-30T04:54:06.796Z,22.77
2023-06-30T04:56:36.112Z,22.87
2023-06-30T04:59:06.769Z,22.95
2023-06-30T05:01:36.303Z,22.99
2023-06-30T05:04:06.422Z,23.04
2023-06-30T05:06:36.399Z,23.11
2023-06-30T05:09:06.704Z,23.26
2023-06-30T05:11:36.477Z,23.46
2023-06-30T05:14:06.970Z,23.64
2023-06-30T05:16:36.602Z,23.85
2023-06-30T05:19:06.241Z,24.07
2023-06-30T05:21:38.274Z,24.24
2023-06-30T05:24:09.578Z,24.45
2023-06-30T05:26:41.432Z,24.65
2023-06-30T05:29:11.411Z,24.75
2023-06-30T05:31:40.609Z,24.85
2023-06-30T05:34:11.856Z,24.93
2023-06-30T05:36:46.995Z,25.10
2023-06-30T05:39:18.112Z,25.27
2023-06-30T05:41:48.232Z,25.34
2023-06-30T05:44:18.541Z,25.36
2023-06-30T05:46:50.018Z,25.49
2023-06-30T05:49:20.650Z,25.63
2023-06-30T05:51:51.104Z,25.76
2023-06-30T05:54:20.723Z,25.91
2023-06-30T05:56:50.368Z,26.03
2023-06-30T05:59:20.337Z,26.14
2023-06-30T06:01:50.553Z,26.22
2023-06-30T06:04:21.575Z,26.25
2023-06-30T06:06:51.175Z,26.35
2023-06-30T06:09:20.722Z,26.58
2023-06-30T06:11:50.716Z,26.75
2023-06-30T06:14:21.617Z,26.85
2023-06-30T06:16:52.259Z,26.97
2023-06-30T06:19:25.508Z,27.14
2023-06-30T06:21:58.286Z,27.27
2023-06-30T06:24:29.007Z,27.45
2023-06-30T06:26:59.745Z,27.57
2023-06-30T06:29:29.588Z,27.62
2023-06-30T06:32:00.518Z,27.70
2023-06-30T06:34:30.611Z,27.81
2023-06-30T06:37:00.025Z,27.97
2023-06-30T06:39:30.114Z,28.14
2023-06-30T06:42:00.281Z,28.25
2023-06-30T06:44:30.335Z,28.42
2023-06-30T06:47:37.966Z,28.67
2023-06-30T06:50:08.528Z,28.86
2023-06-30T06:52:40.264Z,29.01
2023-06-30T06:55:10.664Z,29.13
2023-06-30T06:57:40.053Z,29.24
2023-06-30T07:00:10.567Z,29.26
2023-06-30T07:02:41.946Z,29.28
2023-06-30T07:05:13.844Z,29.42
2023-06-30T07:07:44.323Z,29.57
2023-06-30T07:10:14.847Z,29.70
2023-06-30T07:12:44.394Z,29.75
2023-06-30T07:15:13.727Z,29.85
2023-06-30T07:17:43.447Z,29.91
2023-06-30T07:20:14.535Z,29.90
2023-06-30T07:22:44.037Z,29.89
2023-06-30T07:25:13.882Z,29.89
2023-06-30T07:27:54.824Z,30.02
2023-06-30T07:30:26.988Z,30.25
2023-06-30T07:32:57.245Z,30.54
2023-06-30T07:35:28.092Z,30.75
2023-06-30T07:37:58.969Z,31.02
2023-06-30T07:40:38.447Z,31.36
2023-06-30T07:43:16.311Z,31.56
2023-06-30T07:45:46.322Z,31.83
2023-06-30T07:48:16.155Z,32.15
2023-06-30T07:50:55.419Z,32.43
2023-06-30T07:53:36.125Z,32.65
2023-06-30T07:56:06.674Z,32.81
2023-06-30T07:58:36.908Z,32.92
2023-06-30T08:01:06.600Z,33.02
2023-06-30T08:03:36.813Z,33.24
2023-06-30T08:06:07.243Z,33.49
2023-06-30T08:08:37.587Z,33.73
2023-06-30T08:11:08.168Z,33.80
2023-06-30T08:13:40.129Z,33.97
2023-06-30T08:16:11.378Z,34.06
2023-06-30T08:18:52.280Z,34.04
2023-06-30T08:21:23.648Z,33.76
2023-06-30T08:23:53.629Z,33.71
2023-06-30T08:26:23.425Z,33.64
2023-06-30T08:28:53.348Z,33.41
2023-06-30T08:31:25.383Z,33.33
2023-06-30T08:33:55.941Z,33.51
2023-06-30T08:36:26.573Z,33.76
2023-06-30T08:38:56.792Z,33.86
2023-06-30T08:41:27.383Z,33.80
2023-06-30T08:43:58.829Z,33.95
2023-06-30T08:46:30.196Z,34.19
2023-06-30T08:48:59.949Z,34.17
2023-06-30T08:51:30.217Z,34.07
2023-06-30T08:54:00.521Z,33.82
2023-06-30T08:56:31.930Z,33.60
2023-06-30T08:59:01.992Z,33.53
2023-06-30T09:01:32.786Z,33.40
2023-06-30T09:04:03.980Z,33.27
2023-06-30T09:06:39.819Z,33.43
2023-06-30T09:09:13.598Z,33.92
2023-06-30T09:11:42.754Z,34.56
2023-06-30T09:14:13.189Z,35.08
2023-06-30T09:16:43.081Z,35.41
2023-06-30T09:19:14.453Z,35.69
2023-06-30T09:21:44.039Z,36.10
2023-06-30T09:24:13.988Z,36.28
2023-06-30T09:26:43.159Z,36.21
2023-06-30T09:29:14.844Z,36.53
2023-06-30T09:31:44.420Z,36.78
2023-06-30T09:34:15.279Z,37.03
2023-06-30T09:36:49.221Z,37.09
2023-06-30T09:39:19.526Z,37.23
2023-06-30T09:41:50.034Z,37.52
2023-06-30T09:44:23.692Z,37.77
2023-06-30T09:46:56.359Z,37.70
2023-06-30T09:49:34.279Z,37.89
2023-06-30T09:52:05.478Z,37.57
2023-06-30T09:54:44.612Z,37.06
2023-06-30T09:57:14.445Z,36.60
2023-06-30T09:59:47.484Z,36.59
2023-06-30T10:02:18.184Z,36.84
2023-06-30T10:04:48.142Z,37.29
2023-06-30T10:07:18.125Z,37.82
2023-06-30T10:09:49.894Z,38.05
2023-06-30T10:12:20.908Z,37.76
2023-06-30T10:14:53.067Z,37.19
2023-06-30T10:17:23.630Z,36.54
2023-06-30T10:19:55.658Z,35.86
2023-06-30T10:22:25.537Z,35.38
2023-06-30T10:24:57.282Z,35.17
2023-06-30T10:27:28.204Z,35.35
2023-06-30T10:29:59.005Z,35.37
2023-06-30T10:32:30.069Z,35.89
2023-06-30T10:35:01.802Z,36.49
2023-06-30T10:37:31.967Z,37.02
2023-06-30T10:40:03.449Z,37.45
2023-06-30T10:42:44.193Z,37.61
2023-06-30T10:45:14.180Z,37.84
2023-06-30T10:47:48.043Z,37.82
2023-06-30T10:50:19.184Z,37.42
2023-06-30T10:52:56.546Z,37.28
2023-06-30T10:55:31.135Z,37.55
2023-06-30T10:58:05.661Z,37.86
2023-06-30T11:00:37.915Z,38.21
2023-06-30T11:03:08.264Z,38.35
2023-06-30T11:05:38.572Z,38.43
2023-06-30T11:08:11.875Z,38.59
2023-06-30T11:10:49.490Z,38.82
2023-06-30T11:13:38.692Z,38.89
2023-06-30T11:16:10.374Z,38.99
2023-06-30T11:18:40.961Z,39.24
2023-06-30T11:21:10.707Z,39.09
2023-06-30T11:23:41.746Z,38.94
2023-06-30T11:26:15.572Z,38.47
2023-06-30T11:28:50.894Z,38.32
2023-06-30T11:31:21.162Z,38.54
2023-06-30T11:33:51.551Z,38.73
2023-06-30T11:36:22.525Z,38.90
2023-06-30T11:38:53.207Z,39.15
2023-06-30T11:41:25.725Z,39.27
2023-06-30T11:44:00.113Z,38.92
2023-06-30T11:46:38.207Z,38.66
2023-06-30T11:49:11.323Z,38.79
2023-06-30T11:51:42.489Z,39.11
2023-06-30T11:54:16.041Z,39.36
2023-06-30T11:56:46.011Z,39.24
2023-06-30T11:59:15.730Z,38.96
2023-06-30T12:01:47.654Z,38.53
2023-06-30T12:04:18.120Z,38.03
2023-06-30T12:06:48.711Z,37.25
2023-06-30T12:09:18.866Z,36.41
2023-06-30T12:11:52.444Z,35.54
2023-06-30T12:14:28.432Z,34.64
2023-06-30T12:16:59.837Z,34.32
2023-06-30T12:19:30.236Z,34.21
2023-06-30T12:22:08.704Z,33.69
2023-06-30T12:24:40.568Z,33.28
2023-06-30T12:27:11.360Z,33.13
2023-06-30T12:29:48.281Z,32.81
2023-06-30T12:32:19.572Z,32.17
2023-06-30T12:35:04.123Z,31.69
2023-06-30T12:37:37.692Z,31.25
2023-06-30T12:40:10.730Z,30.72
2023-06-30T12:42:46.585Z,30.32
2023-06-30T12:45:17.660Z,29.72
2023-06-30T12:47:47.721Z,29.63
2023-06-30T12:50:18.413Z,29.48
2023-06-30T12:52:50.009Z,29.88
2023-06-30T12:55:23.858Z,30.36
2023-06-30T12:57:54.039Z,30.51
2023-06-30T13:00:24.315Z,30.88
2023-06-30T13:02:56.453Z,31.42
2023-06-30T13:05:26.175Z,32.09
2023-06-30T13:07:58.367Z,32.72
2023-06-30T13:10:29.245Z,33.31
2023-06-30T13:12:59.964Z,33.52
2023-06-30T13:15:34.131Z,33.69
2023-06-30T13:18:03.416Z,33.99
2023-06-30T13:20:34.000Z,34.30
2023-06-30T13:23:14.555Z,34.77
2023-06-30T13:25:53.415Z,34.87
2023-06-30T13:28:24.712Z,34.91
2023-06-30T13:30:55.612Z,34.96
2023-06-30T13:33:27.459Z,35.05
2023-06-30T13:35:57.610Z,34.81
2023-06-30T13:38:27.624Z,35.00
2023-06-30T13:40:57.547Z,35.33
2023-06-30T13:43:29.682Z,35.55
2023-06-30T13:46:02.535Z,35.67
2023-06-30T13:48:34.717Z,35.45
2023-06-30T13:51:06.284Z,35.69
2023-06-30T13:53:38.131Z,35.97
2023-06-30T13:56:09.487Z,36.02
2023-06-30T13:58:41.951Z,36.03
2023-06-30T14:01:16.508Z,36.04
2023-06-30T14:03:52.299Z,36.18
2023-06-30T14:06:22.146Z,36.27
2023-06-30T14:08:51.936Z,36.33
2023-06-30T14:11:22.667Z,36.58
2023-06-30T14:13:52.035Z,36.79
2023-06-30T14:16:22.307Z,36.94
2023-06-30T14:18:52.787Z,36.94
2023-06-30T14:21:22.833Z,36.88
2023-06-30T14:23:53.193Z,36.73
2023-06-30T14:26:23.744Z,36.44
2023-06-30T14:28:56.994Z,36.35
2023-06-30T14:31:27.052Z,36.42
2023-06-30T14:33:56.598Z,36.23
2023-06-30T14:36:27.764Z,36.09
2023-06-30T14:38:57.500Z,36.13
2023-06-30T14:41:27.538Z,36.18
2023-06-30T14:43:59.452Z,36.04
2023-06-30T14:46:31.539Z,36.06
2023-06-30T14:49:01.540Z,36.06
2023-06-30T14:51:30.815Z,36.07
2023-06-30T14:54:00.967Z,36.15
2023-06-30T14:56:31.323Z,36.02
2023-06-30T14:59:00.723Z,35.97
2023-06-30T15:01:30.290Z,35.94
2023-06-30T15:04:00.832Z,35.70
2023-06-30T15:06:30.797Z,35.63
2023-06-30T15:08:59.865Z,35.63
2023-06-30T15:11:29.956Z,35.52
2023-06-30T15:14:00.059Z,35.35
2023-06-30T15:16:29.424Z,35.41
2023-06-30T15:18:59.443Z,35.31
2023-06-30T15:21:29.118Z,35.06
2023-06-30T15:23:58.471Z,34.72
2023-06-30T15:26:28.225Z,34.34
2023-06-30T15:28:58.614Z,34.01
2023-06-30T15:34:03.618Z,33.81
2023-06-30T15:36:33.493Z,33.63
2023-06-30T15:39:05.089Z,33.52
2023-06-30T15:41:34.573Z,33.31
2023-06-30T15:44:05.536Z,33.10
2023-06-30T15:46:36.250Z,32.91
2023-06-30T15:49:06.764Z,32.70
2023-06-30T15:51:36.380Z,32.49
2023-06-30T15:54:06.543Z,32.36
2023-06-30T15:56:36.380Z,32.21
2023-06-30T15:59:05.954Z,32.09
2023-06-30T16:01:36.044Z,31.97
2023-06-30T16:04:06.314Z,31.84
2023-06-30T16:06:36.350Z,31.75
2023-06-30T16:09:06.344Z,31.68
2023-06-30T16:11:36.924Z,31.60
2023-06-30T16:14:07.292Z,31.56
2023-06-30T16:16:37.582Z,31.43
2023-06-30T16:19:07.469Z,31.28
2023-06-30T16:21:40.663Z,31.08
2023-06-30T16:24:11.285Z,30.96
2023-06-30T16:26:42.039Z,30.87
2023-06-30T16:29:13.942Z,30.76
2023-06-30T16:31:44.975Z,30.62
2023-06-30T16:34:15.389Z,30.49
2023-06-30T16:36:48.073Z,30.28
2023-06-30T16:39:17.619Z,30.21
2023-06-30T16:41:47.902Z,30.10
2023-06-30T16:44:19.245Z,30.06
2023-06-30T16:46:49.383Z,30.05
2023-06-30T16:49:21.168Z,30.08
2023-06-30T16:51:52.831Z,30.01
2023-06-30T16:54:22.363Z,29.89
2023-06-30T16:56:52.474Z,29.80
2023-06-30T16:59:22.578Z,29.77
2023-06-30T17:01:56.147Z,29.73
2023-06-30T17:04:26.127Z,29.55
2023-06-30T17:06:56.270Z,29.45
2023-06-30T17:09:26.573Z,29.35
2023-06-30T17:11:56.617Z,29.32
2023-06-30T17:14:26.489Z,29.24
2023-06-30T17:16:56.534Z,29.18
2023-06-30T17:19:29.323Z,29.09
2023-06-30T17:21:59.856Z,29.08
2023-06-30T17:24:30.279Z,28.96
2023-06-30T17:27:02.306Z,28.83
2023-06-30T17:29:32.208Z,28.66
2023-06-30T17:32:02.785Z,28.41
2023-06-30T17:34:32.981Z,28.23
2023-06-30T17:37:12.387Z,28.01
2023-06-30T17:39:42.656Z,27.83
2023-06-30T17:42:13.370Z,27.74
2023-06-30T17:44:45.375Z,27.65
2023-06-30T17:47:15.437Z,27.56
2023-06-30T17:49:48.053Z,27.48
2023-06-30T17:52:18.114Z,27.41
2023-06-30T17:54:47.500Z,27.28
2023-06-30T17:57:17.108Z,27.20
2023-06-30T17:59:46.769Z,27.18
2023-06-30T18:02:16.942Z,27.16
2023-06-30T18:04:46.641Z,27.14
2023-06-30T18:07:15.947Z,27.10
2023-06-30T18:09:46.180Z,27.05
2023-06-30T18:12:15.664Z,27.06
2023-06-30T18:14:45.942Z,27.08
2023-06-30T18:17:16.692Z,27.07
2023-06-30T18:19:46.940Z,27.02
2023-06-30T18:22:16.270Z,26.99
2023-06-30T18:24:45.559Z,26.99
2023-06-30T18:27:15.033Z,27.06
2023-06-30T18:29:44.907Z,27.09
2023-06-30T18:32:14.614Z,27.08
2023-06-30T18:34:46.297Z,27.09
2023-06-30T18:37:16.150Z,27.09
2023-06-30T18:39:45.456Z,27.11
2023-06-30T18:42:15.475Z,27.14
2023-06-30T18:44:45.230Z,27.15
2023-06-30T18:47:15.546Z,27.24
2023-06-30T18:49:45.744Z,27.26
2023-06-30T18:52:16.421Z,27.18
2023-06-30T18:54:46.665Z,27.19
2023-06-30T18:57:16.395Z,27.08
2023-06-30T18:59:46.581Z,27.01
2023-06-30T19:02:16.417Z,26.94
2023-06-30T19:04:47.441Z,26.92
2023-06-30T19:07:17.191Z,26.94
2023-06-30T19:09:47.370Z,26.92
2023-06-30T19:12:17.179Z,26.70
2023-06-30T19:14:47.047Z,26.12
2023-06-30T19:17:17.075Z,25.81
2023-06-30T19:19:46.325Z,25.61
2023-06-30T19:22:16.232Z,25.52
2023-06-30T19:24:46.059Z,25.39
2023-06-30T19:27:17.665Z,25.30
2023-06-30T19:29:49.519Z,25.19
2023-06-30T19:32:19.718Z,25.04
2023-06-30T19:34:50.202Z,24.98
2023-06-30T19:37:20.380Z,24.99
2023-06-30T19:39:50.556Z,24.88
2023-06-30T19:42:21.525Z,24.90
2023-06-30T19:44:51.120Z,24.92
2023-06-30T19:47:23.030Z,24.96
2023-06-30T19:49:54.321Z,24.95
2023-06-30T19:52:24.689Z,24.92
2023-06-30T19:54:56.132Z,24.97
2023-06-30T19:57:27.190Z,24.96
2023-06-30T19:59:58.060Z,24.97
2023-06-30T20:02:29.015Z,25.00
2023-06-30T20:04:59.832Z,25.03
2023-06-30T20:07:30.821Z,24.95
2023-06-30T20:10:01.942Z,24.92
2023-06-30T20:12:34.424Z,24.84
2023-06-30T20:15:08.480Z,24.75
2023-06-30T20:17:39.775Z,24.72
2023-06-30T20:20:14.833Z,24.68
2023-06-30T20:22:46.704Z,24.67
2023-06-30T20:25:20.167Z,24.73
2023-06-30T20:27:53.485Z,24.79
2023-06-30T20:30:25.003Z,24.79
2023-06-30T20:32:55.492Z,24.78
2023-06-30T20:35:25.470Z,24.80
2023-06-30T20:37:57.062Z,24.85
2023-06-30T20:40:27.651Z,24.83
2023-06-30T20:42:59.233Z,24.82
2023-06-30T20:45:32.589Z,24.80
2023-06-30T20:48:04.053Z,24.65
2023-06-30T20:50:35.462Z,24.51
2023-06-30T20:53:05.656Z,24.42
2023-06-30T20:55:36.012Z,24.35
2023-06-30T20:58:06.505Z,24.35
2023-06-30T21:00:36.752Z,24.37
2023-06-30T21:03:09.311Z,24.33
2023-06-30T21:05:41.339Z,24.05
2023-06-30T21:08:12.742Z,23.83
2023-06-30T21:10:45.877Z,23.71
2023-06-30T21:13:17.111Z,23.66
2023-06-30T21:15:48.870Z,23.70
2023-06-30T21:18:24.083Z,23.70
2023-06-30T21:20:58.382Z,23.61
2023-06-30T21:23:32.843Z,23.53
2023-06-30T21:26:25.871Z,23.46
2023-06-30T21:28:56.689Z,23.23
2023-06-30T21:31:26.039Z,23.18
2023-06-30T21:33:55.785Z,23.16
2023-06-30T21:36:24.894Z,23.19
2023-06-30T21:38:54.474Z,23.22
2023-06-30T21:41:24.479Z,23.25
2023-06-30T21:43:54.597Z,23.11
2023-06-30T21:46:26.327Z,22.94
2023-06-30T21:48:58.456Z,22.81
2023-06-30T21:51:30.819Z,22.75
2023-06-30T21:54:06.336Z,22.70
2023-06-30T21:56:37.210Z,22.75
2023-06-30T21:59:08.715Z,22.79
2023-06-30T22:01:42.182Z,22.73
2023-06-30T22:04:15.350Z,22.65
2023-06-30T22:06:49.089Z,22.59
2023-06-30T22:09:19.608Z,22.53
2023-06-30T22:11:50.599Z,22.42
2023-06-30T22:14:21.520Z,22.33
2023-06-30T22:16:55.339Z,22.32
2023-06-30T22:19:28.422Z,22.31
2023-06-30T22:22:00.635Z,22.28
2023-06-30T22:24:30.603Z,22.23
2023-06-30T22:27:02.261Z,22.17
2023-06-30T22:29:34.074Z,22.10
2023-06-30T22:32:05.831Z,21.94
2023-06-30T22:34:36.824Z,21.93
2023-06-30T22:37:06.974Z,21.96
2023-06-30T22:39:36.055Z,22.07
2023-06-30T22:42:06.282Z,22.13
2023-06-30T22:44:35.358Z,22.11
2023-06-30T22:47:04.937Z,22.09
2023-06-30T22:49:34.199Z,22.18
2023-06-30T22:52:04.309Z,22.14
2023-06-30T22:54:35.863Z,22.10
2023-06-30T22:57:05.919Z,21.99
2023-06-30T22:59:35.354Z,21.83
2023-06-30T23:02:05.352Z,21.58
2023-06-30T23:04:34.971Z,21.51
2023-06-30T23:07:04.802Z,21.20
2023-06-30T23:09:33.952Z,21.19
2023-06-30T23:12:03.579Z,21.28
2023-06-30T23:14:32.832Z,21.31
2023-06-30T23:17:03.917Z,21.08
2023-06-30T23:19:36.218Z,20.82
2023-06-30T23:22:09.921Z,20.83
2023-06-30T23:24:40.287Z,20.93
2023-06-30T23:27:09.970Z,20.98
2023-06-30T23:29:39.557Z,20.83
2023-06-30T23:32:11.443Z,20.86
2023-06-30T23:34:41.631Z,21.05
2023-06-30T23:37:19.043Z,21.10
2023-06-30T23:39:53.014Z,21.11
2023-06-30T23:42:22.744Z,21.20
2023-06-30T23:44:52.891Z,21.27
2023-06-30T23:47:22.448Z,21.33
2023-06-30T23:49:51.669Z,21.39
2023-06-30T23:52:21.040Z,21.48
2023-06-30T23:54:50.694Z,21.55
2023-06-30T23:57:21.702Z,21.54
2023-06-30T23:59:52.282Z,21.40
